Meteorología y climatología de Navarra
Datos de la estación - Meteo Navarra

Estación de Aralar GN

Altitud 1344 m.


Datos desde el 09/11/2018 hasta el 10/11/2018 en horario solar
Los datos son PROVISIONALES

Anterior Página 1 de 1 Siguiente Descargar: Formato para Excel 2000 o superior   Formato csv   Formato para OpenOffice Calc
Fecha Temperatura Humedad relativa Radiación global Insolación Precipitación Velocidad viento 10 m Velocidad viento 10 m Dirección viento 10 m
ºC % W/m² s l/m² m/s km/h º
09/11/2018 0:00 2.6 100 0.0 0 0.0 5.1 18.5 266
09/11/2018 0:10 2.6 100 0.0 0 0.0 4.0 14.2 269
09/11/2018 0:20 2.6 100 0.0 0 0.0 4.2 15.0 261
09/11/2018 0:30 2.5 100 0.0 0 0.0 3.6 13.1 265
09/11/2018 0:40 2.5 100 0.0 0 0.0 3.3 12.0 282
09/11/2018 0:50 3.0 100 0.0 0 0.0 2.8 10.0 282
09/11/2018 1:00 3.6 97 0.0 0 0.0 3.5 12.5 284
09/11/2018 1:10 3.5 97 0.0 0 0.0 4.0 14.3 292
09/11/2018 1:20 3.1 100 0.0 0 0.0 4.8 17.2 297
09/11/2018 1:30 2.8 100 0.0 0 0.0 2.5 8.9 290
09/11/2018 1:40 2.6 100 0.0 0 0.0 2.8 10.2 272
09/11/2018 1:50 2.5 100 0.0 0 0.0 2.4 8.7 271
09/11/2018 2:00 2.4 100 0.0 0 0.0 3.4 12.3 265
09/11/2018 2:10 2.4 100 0.0 0 0.0 2.5 8.9 277
09/11/2018 2:20 2.3 100 0.0 0 0.0 2.7 9.8 292
09/11/2018 2:30 2.4 100 0.0 0 0.0 2.8 10.1 293
09/11/2018 2:40 2.4 100 0.0 0 0.0 2.9 10.4 296
09/11/2018 2:50 2.3 100 0.0 0 0.0 3.2 11.6 298
09/11/2018 3:00 2.3 100 0.0 0 0.0 4.4 15.7 304
09/11/2018 3:10 2.4 100 0.0 0 0.1 5.4 19.3 304
09/11/2018 3:20 2.4 100 0.0 0 0.1 5.1 18.5 303
09/11/2018 3:30 2.4 100 0.0 0 0.1 4.9 17.6 302
09/11/2018 3:40 2.4 100 0.0 0 0.1 5.6 20.3 310
09/11/2018 3:50 2.4 100 0.0 0 0.0 5.8 21.0 311
09/11/2018 4:00 2.4 100 0.0 0 0.1 5.6 20.3 308
09/11/2018 4:10 2.4 100 0.0 0 0.0 5.5 19.7 305
09/11/2018 4:20 2.4 100 0.0 0 0.1 5.2 18.6 312
09/11/2018 4:30 2.5 100 0.0 0 0.0 5.7 20.6 317
09/11/2018 4:40 2.5 100 0.0 0 0.1 5.0 18.0 326
09/11/2018 4:50 2.6 100 0.0 0 0.0 6.1 22.1 326
09/11/2018 5:00 2.5 100 0.0 0 0.0 6.1 22.0 331
09/11/2018 5:10 2.5 100 0.0 0 0.0 5.7 20.4 330
09/11/2018 5:20 2.5 100 0.0 0 0.1 6.1 22.1 326
09/11/2018 5:30 2.6 100 0.0 0 0.1 7.2 25.7 310
09/11/2018 5:40 2.5 100 0.0 0 0.0 7.3 26.4 310
09/11/2018 5:50 2.4 100 0.0 0 0.0 7.9 28.3 305
09/11/2018 6:00 2.2 100 0.0 0 0.1 8.6 31.0 305
09/11/2018 6:10 2.1 100 0.0 0 0.0 8.8 31.6 306
09/11/2018 6:20 2.1 100 0.0 0 0.0 8.0 28.7 305
09/11/2018 6:30 2.0 100 0.0 0 0.0 7.5 27.1 309
09/11/2018 6:40 2.0 100 0.0 0 0.0 7.3 26.4 306
09/11/2018 6:50 2.0 100 0.0 0 0.0 8.4 30.2 306
09/11/2018 7:00 1.9 100 0.0 0 0.0 8.7 31.2 309
09/11/2018 7:10 1.9 100 0.0 0 0.0 8.4 30.2 309
09/11/2018 7:20 1.8 100 0.0 0 0.0 7.8 28.2 309
09/11/2018 7:30 2.0 100 18.8 36 0.0 7.2 25.9 314
09/11/2018 7:40 2.0 100 24.6 0 0.0 7.3 26.2 320
09/11/2018 7:50 2.0 100 48.3 0 0.0 7.3 26.3 309
09/11/2018 8:00 2.0 100 60.1 0 0.0 7.4 26.5 306
09/11/2018 8:10 2.2 100 86.3 158 0.0 6.6 23.6 308
09/11/2018 8:20 2.3 100 82.9 110 0.0 6.5 23.4 311
09/11/2018 8:30 2.4 100 138.4 306 0.0 6.6 23.7 312
09/11/2018 8:40 2.4 100 173.8 448 0.0 6.0 21.6 308
09/11/2018 8:50 2.4 100 114.7 38 0.0 5.7 20.6 306
09/11/2018 9:00 2.4 100 94.0 0 0.0 5.5 19.9 309
09/11/2018 9:10 2.5 100 126.8 32 0.0 5.8 20.8 306
09/11/2018 9:20 2.4 100 134.2 44 0.0 5.9 21.2 305
09/11/2018 9:30 2.5 100 137.3 28 0.0 5.2 18.7 303
09/11/2018 9:40 2.5 100 129.6 0 0.0 5.1 18.5 302
09/11/2018 9:50 2.5 100 167.7 20 0.0 5.1 18.4 299
09/11/2018 10:00 2.5 100 215.4 158 0.0 5.4 19.5 301
09/11/2018 10:10 2.5 100 180.2 126 0.0 5.8 21.0 301
09/11/2018 10:20 2.3 100 149.5 0 0.0 6.1 22.1 301
09/11/2018 10:30 2.6 100 233.1 240 0.0 3.8 13.8 301
09/11/2018 10:40 2.6 100 224.0 162 0.0 2.9 10.5 299
09/11/2018 10:50 2.7 100 229.9 164 0.0 3.4 12.2 298
09/11/2018 11:00 2.8 100 178.0 0 0.0 2.3 8.4 290
09/11/2018 11:10 2.8 100 108.2 0 0.0 2.0 7.2 261
09/11/2018 11:20 3.0 100 103.8 0 0.0 1.8 6.3 255
09/11/2018 11:30 2.8 100 124.1 0 0.0 2.7 9.5 254
09/11/2018 11:40 2.9 100 169.1 16 0.0 2.8 10.0 253
09/11/2018 11:50 3.0 100 271.2 266 0.0 3.2 11.5 253
09/11/2018 12:00 3.0 100 147.2 28 0.0 3.1 11.3 250
09/11/2018 12:10 3.3 100 243.6 108 0.0 2.5 9.0 227
09/11/2018 12:20 3.1 100 297.6 308 0.0 2.8 10.1 228
09/11/2018 12:30 3.4 100 632.4 600 0.0 3.3 11.8 235
09/11/2018 12:40 3.6 100 471.9 460 0.0 4.7 16.8 244
09/11/2018 12:50 3.9 100 371.8 446 0.0 4.6 16.6 242
09/11/2018 13:00 4.3 98 631.4 600 0.0 5.0 18.0 243
09/11/2018 13:10 4.6 95 506.7 552 0.0 5.0 18.1 240
09/11/2018 13:20 4.7 87 602.8 600 0.0 6.6 23.7 244
09/11/2018 13:30 4.5 88 514.0 600 0.0 7.0 25.3 244
09/11/2018 13:40 4.3 83 483.4 600 0.0 7.6 27.4 245
09/11/2018 13:50 4.0 86 296.0 526 0.0 7.9 28.4 249
09/11/2018 14:00 3.7 91 251.9 308 0.0 7.3 26.4 248
09/11/2018 14:10 4.0 87 471.0 600 0.0 6.6 23.6 247
09/11/2018 14:20 4.3 84 442.3 600 0.0 5.4 19.5 243
09/11/2018 14:30 4.5 84 420.6 600 0.0 4.5 16.2 236
09/11/2018 14:40 4.5 87 391.0 600 0.0 4.3 15.6 236
09/11/2018 14:50 4.2 85 283.3 600 0.0 3.6 13.1 228
09/11/2018 15:00 4.3 82 312.7 600 0.0 4.3 15.4 230
09/11/2018 15:10 4.2 78 303.2 600 0.0 6.7 24.0 239
09/11/2018 15:20 4.2 78 263.0 600 0.0 7.4 26.6 244
09/11/2018 15:30 3.8 83 88.0 136 0.0 7.7 27.6 243
09/11/2018 15:40 3.5 89 86.2 142 0.0 6.9 24.9 238
09/11/2018 15:50 3.3 91 83.2 62 0.0 6.6 23.7 239
09/11/2018 16:00 3.3 93 105.8 540 0.0 7.9 28.5 242
09/11/2018 16:10 3.4 93 84.7 498 0.0 8.3 29.8 242
09/11/2018 16:20 3.4 93 40.6 240 0.0 6.8 24.4 239
09/11/2018 16:30 3.3 95 0.0 0 0.0 7.0 25.1 239
09/11/2018 16:40 3.2 96 0.0 0 0.0 9.9 35.6 244
09/11/2018 16:50 3.1 97 0.0 0 0.0 9.5 34.1 245
09/11/2018 17:00 3.0 100 0.0 0 0.0 9.7 34.8 244
09/11/2018 17:10 2.9 100 0.0 0 0.0 9.8 35.3 244
09/11/2018 17:20 2.9 100 0.0 0 0.0 10.2 36.8 246
09/11/2018 17:30 2.9 100 0.0 0 0.0 9.1 32.7 246
09/11/2018 17:40 3.1 100 0.0 0 0.0 9.9 35.7 249
09/11/2018 17:50 3.1 100 0.0 0 0.0 8.7 31.3 250
09/11/2018 18:00 3.1 100 0.0 0 0.0 9.3 33.3 248
09/11/2018 18:10 3.1 100 0.0 0 0.0 8.9 32.0 247
09/11/2018 18:20 3.1 100 0.0 0 0.0 9.3 33.4 247
09/11/2018 18:30 3.1 100 0.0 0 0.0 8.8 31.6 249
09/11/2018 18:40 3.2 100 0.0 0 0.0 8.4 30.1 248
09/11/2018 18:50 3.2 100 0.0 0 0.0 8.7 31.4 247
09/11/2018 19:00 3.1 100 0.0 0 0.0 8.5 30.7 245
09/11/2018 19:10 3.0 100 0.0 0 0.0 7.9 28.5 244
09/11/2018 19:20 3.1 100 0.0 0 0.0 8.5 30.6 244
09/11/2018 19:30 3.2 100 0.0 0 0.0 6.9 24.8 242
09/11/2018 19:40 3.2 100 0.0 0 0.0 7.4 26.7 243
09/11/2018 19:50 3.5 100 0.0 0 0.0 5.6 20.1 238
09/11/2018 20:00 3.4 100 0.0 0 0.0 6.4 22.9 241
09/11/2018 20:10 3.4 100 0.0 0 0.0 7.6 27.5 244
09/11/2018 20:20 3.5 100 0.0 0 0.0 9.3 33.5 248
09/11/2018 20:30 3.6 100 0.0 0 0.0 9.9 35.7 248
09/11/2018 20:40 3.8 100 0.0 0 0.0 9.9 35.7 250
09/11/2018 20:50 3.9 100 0.0 0 0.0 9.5 34.1 247
09/11/2018 21:00 3.9 100 0.0 0 0.1 8.3 29.9 244
09/11/2018 21:10 3.9 100 0.0 0 0.1 6.6 23.6 239
09/11/2018 21:20 4.0 100 0.0 0 0.1 5.9 21.1 233
09/11/2018 21:30 4.1 100 0.0 0 0.1 5.6 20.3 231
09/11/2018 21:40 4.2 100 0.0 0 0.1 5.7 20.4 231
09/11/2018 21:50 4.5 100 0.0 0 0.1 6.7 24.0 229
09/11/2018 22:00 4.6 100 0.0 0 0.0 6.8 24.6 227
09/11/2018 22:10 4.7 100 0.0 0 0.0 6.2 22.2 231
09/11/2018 22:20 4.6 100 0.0 0 0.0 7.7 27.8 225
09/11/2018 22:30 4.6 100 0.0 0 0.0 10.8 39.0 217
09/11/2018 22:40 4.5 100 0.0 0 0.0 11.6 41.9 215
09/11/2018 22:50 4.2 100 0.0 0 0.0 10.6 38.2 215
09/11/2018 23:00 4.3 100 0.0 0 0.0 11.1 40.0 215
09/11/2018 23:10 4.5 100 0.0 0 0.0 12.3 44.2 206
09/11/2018 23:20 4.4 100 0.0 0 0.0 11.8 42.6 205
09/11/2018 23:30 4.3 100 0.0 0 0.0 11.8 42.3 211
09/11/2018 23:40 4.4 100 0.0 0 0.0 10.4 37.3 203
09/11/2018 23:50 4.2 100 0.0 0 0.0 10.8 38.9 204
Anterior Página 1 de 1 Siguiente
Los datos de precipitación registrados en estaciones que están en cumbres son inferiores a lo real, como consecuencia del efecto del viento y de la nieve.


NOTA: Tipo de datos según el color:
   - Valores diarios o 10 minutos correctos
   - Valores diarios calculados a partir de un número de datos 10 minutos menor que 144 y mayor que 120, o de un número de datos semihorarios menor que 48 y mayor que 40 (caso de las estaciones de Riegos de Navarra y del MARM)
   - Valores diez minutos estimados


Contacto        Enlaces        Aviso legal